Time;durP1;ratioP1;P1;durP2;ratioP2;P2;SDS_P1;SDS_P2;PMS_P1;PMS_P2;Temp;Humidity;BMP_temperature;BMP_pressure;BME280_temperature;BME280_humidity;BME280_pressure;Samples;Min_cycle;Max_cycle;Signal;HPM_P1;HPM_P2
2021/03/04 00:01:53;;;;;;;132.18;38.33;;;;;;;;;;4993680;28;20049;-65
2021/03/04 00:04:39;;;;;;;113.20;34.30;;;;;;;;;;4992506;28;20510;-67
2021/03/04 00:07:24;;;;;;;96.35;31.15;;;;;;;;;;4993837;28;20054;-66
2021/03/04 00:10:13;;;;;;;89.18;31.30;;;;;;;;;;4991023;28;20042;-66
2021/03/04 00:12:58;;;;;;;86.70;30.67;;;;;;;;;;4992643;28;20049;-67
2021/03/04 00:15:49;;;;;;;96.88;32.97;;;;;;;;;;4991737;28;20648;-66
2021/03/04 00:18:34;;;;;;;93.25;31.42;;;;;;;;;;4991253;28;20169;-66
2021/03/04 00:21:20;;;;;;;101.53;30.80;;;;;;;;;;4993088;28;20513;-67
2021/03/04 00:24:06;;;;;;;104.63;32.60;;;;;;;;;;4993032;28;20133;-66
2021/03/04 00:26:51;;;;;;;108.05;33.20;;;;;;;;;;4993146;28;20498;-65
2021/03/04 00:29:36;;;;;;;67.05;25.15;;;;;;;;;;4984515;28;20042;-65
2021/03/04 00:32:22;;;;;;;83.20;29.30;;;;;;;;;;4973831;28;20137;-65
2021/03/04 00:35:07;;;;;;;62.75;24.13;;;;;;;;;;4973774;28;20051;-65
2021/03/04 00:37:53;;;;;;;72.30;24.13;;;;;;;;;;4973314;28;20043;-65
2021/03/04 00:40:38;;;;;;;71.50;26.33;;;;;;;;;;4973479;28;20062;-65
2021/03/04 00:43:24;;;;;;;73.43;26.83;;;;;;;;;;4973693;28;20062;-65
2021/03/04 00:46:09;;;;;;;72.22;27.15;;;;;;;;;;4973412;28;20046;-65
2021/03/04 00:48:55;;;;;;;99.80;29.92;;;;;;;;;;4973078;28;20073;-65
2021/03/04 00:51:40;;;;;;;99.50;30.20;;;;;;;;;;4991173;28;20042;-65
2021/03/04 00:54:26;;;;;;;107.28;28.77;;;;;;;;;;4992858;28;20050;-64
2021/03/04 00:57:11;;;;;;;103.07;27.23;;;;;;;;;;4992601;28;20049;-63
2021/03/04 00:59:56;;;;;;;97.30;27.95;;;;;;;;;;4990458;28;20050;-65
2021/03/04 01:02:42;;;;;;;115.30;28.05;;;;;;;;;;4973309;28;20078;-63
2021/03/04 01:05:33;;;;;;;114.70;29.35;;;;;;;;;;4972987;28;20047;-64
2021/03/04 01:08:18;;;;;;;92.00;26.88;;;;;;;;;;4972940;28;20550;-63
2021/03/04 01:11:03;;;;;;;101.72;26.42;;;;;;;;;;4980330;28;20057;-64
2021/03/04 01:13:49;;;;;;;77.47;22.77;;;;;;;;;;4992548;28;20121;-64
2021/03/04 01:16:34;;;;;;;65.38;22.05;;;;;;;;;;4992501;28;20445;-63
2021/03/04 01:19:20;;;;;;;72.07;24.50;;;;;;;;;;4992150;28;20046;-64
2021/03/04 01:22:05;;;;;;;66.65;20.83;;;;;;;;;;4978997;28;20042;-64
2021/03/04 01:24:51;;;;;;;55.28;20.45;;;;;;;;;;4973091;28;20129;-63
2021/03/04 01:27:36;;;;;;;62.45;21.08;;;;;;;;;;4974142;28;20418;-63
2021/03/04 01:30:25;;;;;;;63.40;22.15;;;;;;;;;;4976831;28;20051;-67
2021/03/04 01:33:11;;;;;;;54.30;18.65;;;;;;;;;;4995281;28;20045;-67
2021/03/04 01:35:56;;;;;;;66.50;21.33;;;;;;;;;;4996398;28;20078;-66
2021/03/04 01:38:41;;;;;;;64.35;21.92;;;;;;;;;;4995962;28;20046;-66
2021/03/04 01:41:27;;;;;;;61.45;19.52;;;;;;;;;;4993977;28;20053;-67
2021/03/04 01:44:12;;;;;;;64.88;19.58;;;;;;;;;;4976863;28;20126;-67
2021/03/04 01:46:58;;;;;;;76.97;22.23;;;;;;;;;;4976567;28;20458;-66
2021/03/04 01:49:44;;;;;;;68.20;22.80;;;;;;;;;;4975269;28;20051;-66
2021/03/04 01:52:29;;;;;;;70.05;20.70;;;;;;;;;;4983322;28;20038;-67
2021/03/04 01:55:15;;;;;;;77.72;23.38;;;;;;;;;;4996046;28;20043;-67
2021/03/04 01:58:01;;;;;;;78.85;21.85;;;;;;;;;;4995819;28;20050;-67
2021/03/04 02:00:46;;;;;;;77.80;21.85;;;;;;;;;;4994792;28;20413;-67
2021/03/04 02:03:32;;;;;;;56.40;19.30;;;;;;;;;;4982483;28;20136;-65
2021/03/04 02:06:17;;;;;;;47.33;17.02;;;;;;;;;;4975868;28;20054;-64
2021/03/04 02:09:02;;;;;;;39.60;16.25;;;;;;;;;;4975013;28;20074;-65
2021/03/04 02:11:51;;;;;;;47.13;17.25;;;;;;;;;;4976130;28;20043;-65
2021/03/04 02:14:54;;;;;;;51.25;18.88;;;;;;;;;;4993984;28;20042;-65
2021/03/04 02:17:39;;;;;;;45.10;16.80;;;;;;;;;;4995319;28;20043;-64
2021/03/04 02:20:37;;;;;;;42.70;15.45;;;;;;;;;;4995380;28;20073;-65
2021/03/04 02:23:39;;;;;;;43.17;15.93;;;;;;;;;;4989964;28;20122;-65
2021/03/04 02:26:43;;;;;;;42.08;15.88;;;;;;;;;;4973891;28;20051;-64
2021/03/04 02:29:28;;;;;;;43.03;15.95;;;;;;;;;;4975689;28;20051;-66
2021/03/04 02:32:13;;;;;;;41.47;16.55;;;;;;;;;;4974777;28;20507;-65
2021/03/04 02:35:17;;;;;;;45.88;17.73;;;;;;;;;;4990499;28;20173;-66
2021/03/04 02:38:04;;;;;;;41.92;15.50;;;;;;;;;;4993768;28;20080;-64
2021/03/04 02:40:49;;;;;;;42.10;15.45;;;;;;;;;;4994118;28;20046;-64
2021/03/04 02:43:34;;;;;;;49.03;17.55;;;;;;;;;;4992551;28;20086;-66
2021/03/04 02:46:19;;;;;;;46.95;17.50;;;;;;;;;;4975638;28;20068;-63
2021/03/04 02:49:06;;;;;;;53.75;17.40;;;;;;;;;;4974132;28;20078;-64
2021/03/04 02:51:52;;;;;;;51.20;17.45;;;;;;;;;;4975321;28;20053;-63
2021/03/04 02:54:37;;;;;;;60.47;19.38;;;;;;;;;;4981368;28;20121;-65
2021/03/04 02:57:22;;;;;;;61.90;20.60;;;;;;;;;;4993874;28;20046;-64
2021/03/04 03:00:12;;;;;;;63.25;20.75;;;;;;;;;;4993514;28;20061;-65
2021/03/04 03:02:57;;;;;;;51.15;17.88;;;;;;;;;;4994623;28;20042;-67
2021/03/04 03:05:43;;;;;;;51.13;18.65;;;;;;;;;;4992920;28;20038;-67
2021/03/04 03:08:29;;;;;;;59.95;20.65;;;;;;;;;;4993286;28;20046;-67
2021/03/04 03:11:15;;;;;;;55.28;20.25;;;;;;;;;;4994601;28;20052;-67
2021/03/04 03:14:00;;;;;;;59.38;21.13;;;;;;;;;;4993455;28;20042;-67
2021/03/04 03:16:46;;;;;;;67.53;21.38;;;;;;;;;;4974540;28;20042;-66
2021/03/04 03:19:32;;;;;;;67.80;21.00;;;;;;;;;;4974637;28;20051;-66
2021/03/04 03:22:18;;;;;;;69.55;22.35;;;;;;;;;;4974992;28;20050;-66
2021/03/04 03:25:05;;;;;;;58.22;20.02;;;;;;;;;;4975153;28;20313;-67
2021/03/04 03:27:50;;;;;;;60.85;21.05;;;;;;;;;;4994192;28;20181;-67
2021/03/04 03:30:35;;;;;;;48.15;18.52;;;;;;;;;;4993027;28;20046;-65
2021/03/04 03:33:20;;;;;;;46.03;19.88;;;;;;;;;;4994096;28;20442;-67
2021/03/04 03:36:08;;;;;;;46.38;19.00;;;;;;;;;;4992277;28;20177;-66
2021/03/04 03:38:53;;;;;;;55.08;20.10;;;;;;;;;;4993841;28;20042;-63
2021/03/04 03:41:39;;;;;;;51.28;18.58;;;;;;;;;;4993862;28;20516;-64
2021/03/04 03:44:24;;;;;;;58.58;22.33;;;;;;;;;;4993131;28;20043;-64
2021/03/04 03:47:10;;;;;;;63.05;22.63;;;;;;;;;;4991972;28;20046;-65
2021/03/04 03:49:55;;;;;;;56.20;21.65;;;;;;;;;;4991836;28;20090;-63
2021/03/04 03:52:41;;;;;;;58.45;20.92;;;;;;;;;;4993806;28;20049;-63
2021/03/04 03:55:28;;;;;;;60.33;22.38;;;;;;;;;;4992701;28;20049;-66
2021/03/04 03:58:13;;;;;;;49.83;19.20;;;;;;;;;;4975053;28;20118;-63
2021/03/04 04:00:59;;;;;;;49.35;18.20;;;;;;;;;;4978649;28;20494;-64
2021/03/04 04:03:44;;;;;;;57.78;21.20;;;;;;;;;;4992177;28;20657;-63
2021/03/04 04:06:29;;;;;;;51.47;19.45;;;;;;;;;;4991598;28;20053;-63
2021/03/04 04:09:14;;;;;;;54.08;21.13;;;;;;;;;;4993264;28;20430;-64
2021/03/04 04:12:00;;;;;;;45.22;20.17;;;;;;;;;;4992136;28;20046;-63
2021/03/04 04:14:45;;;;;;;48.67;18.95;;;;;;;;;;4993073;28;20049;-67
2021/03/04 04:17:30;;;;;;;43.75;18.48;;;;;;;;;;4993547;28;20125;-64
2021/03/04 04:20:16;;;;;;;46.28;19.65;;;;;;;;;;4972923;28;20094;-64
2021/03/04 04:23:01;;;;;;;44.03;17.40;;;;;;;;;;4972933;28;20047;-64
2021/03/04 04:25:49;;;;;;;51.33;19.45;;;;;;;;;;4977883;28;20046;-63
2021/03/04 04:28:35;;;;;;;51.42;19.38;;;;;;;;;;4992507;28;20503;-65
2021/03/04 04:31:21;;;;;;;38.22;16.05;;;;;;;;;;4993049;28;20057;-64
2021/03/04 04:34:06;;;;;;;51.28;20.15;;;;;;;;;;4992268;28;20149;-63
2021/03/04 04:36:51;;;;;;;43.85;16.10;;;;;;;;;;4983268;28;20042;-64
2021/03/04 04:39:37;;;;;;;43.45;18.17;;;;;;;;;;4972311;28;20069;-66
2021/03/04 04:42:23;;;;;;;33.15;15.65;;;;;;;;;;4973456;28;20487;-67
2021/03/04 04:45:09;;;;;;;40.53;16.88;;;;;;;;;;4973671;28;20060;-67
2021/03/04 04:47:54;;;;;;;33.35;16.15;;;;;;;;;;4987214;28;20042;-67
2021/03/04 04:50:43;;;;;;;39.42;15.55;;;;;;;;;;4992252;28;20614;-66
2021/03/04 04:53:29;;;;;;;41.60;17.48;;;;;;;;;;4992924;28;20077;-67
2021/03/04 04:56:17;;;;;;;28.02;12.25;;;;;;;;;;4992758;28;20046;-66
2021/03/04 04:59:03;;;;;;;31.95;15.35;;;;;;;;;;4972625;28;20043;-67
2021/03/04 05:01:48;;;;;;;23.80;11.63;;;;;;;;;;4972323;28;20055;-66
2021/03/04 05:04:34;;;;;;;27.60;13.35;;;;;;;;;;4973229;28;20570;-67
2021/03/04 05:07:19;;;;;;;25.30;12.05;;;;;;;;;;4973187;28;20070;-67
2021/03/04 05:10:04;;;;;;;26.25;13.30;;;;;;;;;;4973216;28;20046;-64
2021/03/04 05:12:50;;;;;;;25.05;12.30;;;;;;;;;;4973219;28;20038;-66
2021/03/04 05:15:35;;;;;;;20.73;11.50;;;;;;;;;;4976649;28;20122;-63
2021/03/04 05:18:20;;;;;;;23.20;12.10;;;;;;;;;;4983478;28;20451;-64
2021/03/04 05:21:07;;;;;;;27.02;12.60;;;;;;;;;;4970920;28;20046;-66
2021/03/04 05:23:52;;;;;;;24.00;12.50;;;;;;;;;;4973072;28;20122;-66
2021/03/04 05:26:37;;;;;;;27.10;12.20;;;;;;;;;;4973092;28;20066;-64
2021/03/04 05:29:23;;;;;;;28.67;12.38;;;;;;;;;;4985792;28;20038;-64
2021/03/04 05:32:08;;;;;;;29.10;12.75;;;;;;;;;;4991957;28;20050;-64
2021/03/04 05:34:53;;;;;;;35.33;14.38;;;;;;;;;;4992253;28;20170;-64
2021/03/04 05:37:39;;;;;;;31.00;13.77;;;;;;;;;;4992149;28;20046;-64
2021/03/04 05:40:24;;;;;;;27.38;12.63;;;;;;;;;;4971733;28;20201;-66
2021/03/04 05:43:10;;;;;;;34.40;14.30;;;;;;;;;;4973004;28;20043;-64
2021/03/04 05:45:56;;;;;;;35.42;14.90;;;;;;;;;;4972901;28;20043;-64
2021/03/04 05:48:42;;;;;;;35.92;14.63;;;;;;;;;;4974258;28;20129;-64
2021/03/04 05:51:28;;;;;;;26.55;11.68;;;;;;;;;;5025233;23;20041;-64
2021/03/04 05:54:14;;;;;;;26.92;11.90;;;;;;;;;;5031614;28;20468;-64
2021/03/04 05:56:59;;;;;;;26.70;12.25;;;;;;;;;;5030586;28;20041;-66
2021/03/04 05:59:44;;;;;;;29.52;11.60;;;;;;;;;;5038570;28;20045;-65
2021/03/04 06:02:30;;;;;;;20.55;10.38;;;;;;;;;;5000645;28;20054;-65
2021/03/04 06:05:15;;;;;;;18.55;9.90;;;;;;;;;;5011718;28;20068;-66
2021/03/04 06:08:02;;;;;;;18.83;10.77;;;;;;;;;;5011494;28;20460;-64
2021/03/04 06:10:50;;;;;;;20.88;10.93;;;;;;;;;;5023437;28;20460;-64
2021/03/04 06:13:36;;;;;;;16.27;8.65;;;;;;;;;;5032846;28;20068;-65
2021/03/04 06:16:21;;;;;;;14.43;8.50;;;;;;;;;;5034013;28;20046;-65
2021/03/04 06:19:06;;;;;;;18.92;9.38;;;;;;;;;;5034662;28;20037;-65
2021/03/04 06:22:01;;;;;;;19.83;10.20;;;;;;;;;;5016154;28;20050;-64
2021/03/04 06:24:50;;;;;;;22.10;10.10;;;;;;;;;;5015098;28;20045;-65
2021/03/04 06:27:37;;;;;;;19.90;10.13;;;;;;;;;;5014902;28;20061;-65
2021/03/04 06:30:23;;;;;;;22.75;10.80;;;;;;;;;;5017544;28;20038;-65
2021/03/04 06:33:09;;;;;;;25.52;10.80;;;;;;;;;;5033168;28;20505;-65
2021/03/04 06:35:54;;;;;;;21.52;10.82;;;;;;;;;;5034647;28;20493;-66
2021/03/04 06:38:40;;;;;;;22.55;11.75;;;;;;;;;;5034345;28;20048;-66
2021/03/04 06:41:25;;;;;;;22.25;11.38;;;;;;;;;;5024670;28;20045;-66
2021/03/04 06:44:12;;;;;;;21.55;9.98;;;;;;;;;;5014110;28;20050;-65
2021/03/04 06:46:57;;;;;;;19.83;10.60;;;;;;;;;;5014615;28;20065;-65
2021/03/04 06:49:43;;;;;;;21.77;10.77;;;;;;;;;;5014670;28;20424;-65
2021/03/04 06:52:31;;;;;;;19.73;10.90;;;;;;;;;;5027508;28;20049;-65
2021/03/04 06:55:17;;;;;;;24.15;11.38;;;;;;;;;;5034320;28;20107;-65
2021/03/04 06:58:03;;;;;;;24.05;11.23;;;;;;;;;;5034153;28;20052;-65
2021/03/04 07:00:49;;;;;;;22.13;11.30;;;;;;;;;;5032335;28;20116;-64
2021/03/04 07:03:49;;;;;;;21.30;10.43;;;;;;;;;;5033632;28;20056;-64
2021/03/04 07:06:36;;;;;;;20.15;10.73;;;;;;;;;;5033965;28;20107;-67
2021/03/04 07:09:21;;;;;;;20.77;10.73;;;;;;;;;;5033871;28;20055;-65
2021/03/04 07:12:07;;;;;;;24.98;11.70;;;;;;;;;;5016573;28;20127;-67
2021/03/04 07:14:53;;;;;;;27.63;12.52;;;;;;;;;;5014149;28;20046;-64
2021/03/04 07:17:38;;;;;;;23.95;12.43;;;;;;;;;;5013337;28;20168;-64
2021/03/04 07:20:23;;;;;;;21.77;10.82;;;;;;;;;;5012813;28;20049;-64
2021/03/04 07:23:08;;;;;;;24.13;11.65;;;;;;;;;;4994181;28;20050;-66
2021/03/04 07:25:53;;;;;;;22.02;10.55;;;;;;;;;;4992649;28;20418;-65
2021/03/04 07:28:41;;;;;;;20.58;10.95;;;;;;;;;;4992253;28;20125;-64
2021/03/04 07:31:29;;;;;;;24.80;12.82;;;;;;;;;;5002098;28;20045;-65
2021/03/04 07:34:19;;;;;;;22.45;12.13;;;;;;;;;;5031362;28;20116;-65
2021/03/04 07:37:04;;;;;;;19.98;11.73;;;;;;;;;;5033477;28;20409;-65
2021/03/04 07:39:58;;;;;;;21.13;12.05;;;;;;;;;;5031708;28;20044;-65
2021/03/04 07:42:43;;;;;;;22.35;12.45;;;;;;;;;;4992782;28;20054;-65
2021/03/04 07:45:28;;;;;;;18.05;10.95;;;;;;;;;;5000893;28;20192;-65
2021/03/04 07:48:16;;;;;;;22.50;11.63;;;;;;;;;;5013485;28;20054;-65
2021/03/04 07:51:01;;;;;;;19.83;10.70;;;;;;;;;;5014174;28;20049;-63
2021/03/04 07:53:47;;;;;;;20.02;11.27;;;;;;;;;;5012942;28;20042;-65
2021/03/04 07:56:32;;;;;;;18.42;11.48;;;;;;;;;;5013541;28;20049;-64
2021/03/04 07:59:18;;;;;;;25.17;12.13;;;;;;;;;;5012116;28;20388;-64
2021/03/04 08:02:04;;;;;;;21.02;12.23;;;;;;;;;;5014095;28;20073;-64
2021/03/04 08:04:49;;;;;;;25.25;12.57;;;;;;;;;;5013435;28;20050;-65
2021/03/04 08:07:34;;;;;;;17.60;11.02;;;;;;;;;;5013127;28;20173;-64
2021/03/04 08:10:23;;;;;;;20.40;12.05;;;;;;;;;;5013944;28;20046;-64
2021/03/04 08:13:08;;;;;;;19.95;11.65;;;;;;;;;;5013171;28;20061;-64
2021/03/04 08:15:53;;;;;;;18.13;11.40;;;;;;;;;;5013140;28;20061;-64
2021/03/04 08:18:40;;;;;;;18.92;10.90;;;;;;;;;;5011675;28;20052;-64
2021/03/04 08:21:25;;;;;;;17.58;10.82;;;;;;;;;;5020008;28;20041;-65
2021/03/04 08:24:13;;;;;;;17.77;11.10;;;;;;;;;;5032725;28;20064;-64
2021/03/04 08:26:58;;;;;;;15.73;10.77;;;;;;;;;;5032489;28;20045;-65
2021/03/04 08:29:47;;;;;;;15.93;9.75;;;;;;;;;;5032451;28;20049;-65
2021/03/04 08:32:32;;;;;;;15.63;9.82;;;;;;;;;;5019171;28;20045;-65
2021/03/04 08:35:20;;;;;;;15.63;10.52;;;;;;;;;;5012489;28;20049;-64
2021/03/04 08:38:06;;;;;;;17.42;10.13;;;;;;;;;;5012420;28;20529;-65
2021/03/04 08:40:56;;;;;;;16.25;10.00;;;;;;;;;;5012645;28;20061;-64
2021/03/04 08:43:41;;;;;;;13.90;9.32;;;;;;;;;;5030401;28;20052;-64
2021/03/04 08:46:31;;;;;;;16.10;10.55;;;;;;;;;;5030518;28;20045;-64
2021/03/04 08:49:20;;;;;;;15.38;9.68;;;;;;;;;;5030992;28;20041;-65
2021/03/04 08:52:05;;;;;;;14.05;9.45;;;;;;;;;;5029628;28;20136;-64
2021/03/04 08:54:51;;;;;;;12.32;9.45;;;;;;;;;;5032177;28;20056;-64
2021/03/04 08:57:37;;;;;;;16.67;10.00;;;;;;;;;;5030958;28;20107;-65
2021/03/04 09:00:22;;;;;;;13.63;9.10;;;;;;;;;;5029808;28;20421;-63
2021/03/04 09:03:09;;;;;;;16.50;9.95;;;;;;;;;;5011026;28;20056;-64
2021/03/04 09:06:03;;;;;;;14.00;9.65;;;;;;;;;;5012280;28;20056;-63
2021/03/04 09:08:49;;;;;;;18.08;9.60;;;;;;;;;;5011948;28;20057;-64
2021/03/04 09:11:36;;;;;;;14.77;9.43;;;;;;;;;;5013173;28;20616;-64
2021/03/04 09:14:27;;;;;;;15.25;9.73;;;;;;;;;;5011598;28;20486;-64
2021/03/04 09:17:12;;;;;;;13.98;9.13;;;;;;;;;;5012097;28;20528;-64
2021/03/04 09:19:58;;;;;;;14.73;9.35;;;;;;;;;;5011992;28;20119;-65
2021/03/04 09:22:43;;;;;;;13.88;9.30;;;;;;;;;;5026733;28;20045;-65
2021/03/04 09:25:28;;;;;;;13.82;9.18;;;;;;;;;;5031678;28;20053;-64
2021/03/04 09:28:15;;;;;;;14.88;9.02;;;;;;;;;;5031774;28;20050;-64
2021/03/04 09:31:13;;;;;;;12.50;7.95;;;;;;;;;;5030826;28;20049;-64
2021/03/04 09:33:59;;;;;;;12.57;8.73;;;;;;;;;;4992436;28;20413;-64
2021/03/04 09:36:44;;;;;;;11.63;7.63;;;;;;;;;;4992385;28;20457;-64
2021/03/04 09:39:39;;;;;;;11.75;7.20;;;;;;;;;;4992174;28;20047;-64
2021/03/04 09:42:30;;;;;;;10.20;7.57;;;;;;;;;;5003603;28;20049;-64
2021/03/04 09:45:16;;;;;;;12.50;7.57;;;;;;;;;;5030302;28;20068;-64
2021/03/04 09:48:01;;;;;;;12.73;8.45;;;;;;;;;;5032794;28;20049;-64
2021/03/04 09:50:53;;;;;;;15.73;9.60;;;;;;;;;;5035192;28;20821;-64
2021/03/04 09:53:48;;;;;;;14.18;7.82;;;;;;;;;;5022141;28;20042;-64
2021/03/04 09:56:33;;;;;;;11.25;8.00;;;;;;;;;;5015398;28;20387;-64
2021/03/04 09:59:19;;;;;;;10.02;6.97;;;;;;;;;;5015532;28;20100;-71
2021/03/04 10:02:04;;;;;;;11.95;6.68;;;;;;;;;;5016506;28;20046;-65
2021/03/04 10:04:52;;;;;;;13.65;7.78;;;;;;;;;;5015463;28;20125;-64
2021/03/04 10:07:37;;;;;;;11.40;7.60;;;;;;;;;;5015304;28;20482;-65
2021/03/04 10:10:22;;;;;;;11.43;7.20;;;;;;;;;;5016833;28;20057;-65
2021/03/04 10:13:08;;;;;;;15.38;7.97;;;;;;;;;;5047455;28;20525;-65
2021/03/04 10:15:53;;;;;;;9.57;7.20;;;;;;;;;;5035068;28;20448;-65
2021/03/04 10:18:41;;;;;;;10.23;7.18;;;;;;;;;;5034815;28;20052;-65
2021/03/04 10:21:26;;;;;;;10.02;5.88;;;;;;;;;;5027714;28;20045;-65
2021/03/04 10:24:13;;;;;;;14.88;6.75;;;;;;;;;;5014468;28;20053;-64
2021/03/04 10:26:59;;;;;;;7.38;6.10;;;;;;;;;;5015122;28;20041;-64
2021/03/04 10:29:44;;;;;;;11.20;6.13;;;;;;;;;;5014799;28;20052;-64
2021/03/04 10:32:30;;;;;;;9.68;6.32;;;;;;;;;;5026088;28;20092;-65
2021/03/04 10:35:15;;;;;;;9.30;6.47;;;;;;;;;;5032974;28;20053;-64
2021/03/04 10:38:01;;;;;;;10.07;6.35;;;;;;;;;;5034367;28;20073;-65
2021/03/04 10:40:46;;;;;;;8.18;5.65;;;;;;;;;;5034657;28;20050;-64
2021/03/04 10:43:31;;;;;;;11.38;6.65;;;;;;;;;;5017327;28;20057;-65
2021/03/04 10:46:17;;;;;;;8.30;6.20;;;;;;;;;;5014426;28;20050;-64
2021/03/04 10:49:02;;;;;;;12.05;6.45;;;;;;;;;;5013341;28;20058;-65
2021/03/04 10:51:47;;;;;;;8.32;6.05;;;;;;;;;;5014314;28;20124;-65
2021/03/04 10:54:32;;;;;;;8.95;6.28;;;;;;;;;;4995042;28;20042;-65
2021/03/04 10:57:18;;;;;;;9.73;6.00;;;;;;;;;;4995045;28;20101;-66
2021/03/04 11:00:08;;;;;;;8.18;5.63;;;;;;;;;;4994946;28;20097;-65
2021/03/04 11:02:53;;;;;;;9.77;5.90;;;;;;;;;;5003751;28;20124;-65
2021/03/04 11:05:39;;;;;;;6.43;5.20;;;;;;;;;;5033715;28;20045;-66
2021/03/04 11:08:24;;;;;;;9.95;6.00;;;;;;;;;;5034092;28;20054;-65
2021/03/04 11:11:09;;;;;;;10.77;5.78;;;;;;;;;;5034084;28;20490;-65
2021/03/04 11:13:55;;;;;;;6.10;5.15;;;;;;;;;;5024652;28;20212;-65
2021/03/04 11:16:40;;;;;;;8.27;5.00;;;;;;;;;;5014141;28;20498;-63
2021/03/04 11:19:25;;;;;;;9.20;5.20;;;;;;;;;;5013801;28;20057;-63
2021/03/04 11:22:11;;;;;;;8.35;5.40;;;;;;;;;;5014791;28;20097;-64
2021/03/04 11:24:56;;;;;;;10.02;5.70;;;;;;;;;;5014098;28;20050;-63
2021/03/04 11:27:41;;;;;;;7.32;5.90;;;;;;;;;;5013789;28;20109;-65
2021/03/04 11:30:28;;;;;;;8.02;5.72;;;;;;;;;;5013641;28;20501;-64
2021/03/04 11:33:13;;;;;;;8.98;5.25;;;;;;;;;;5031304;28;20124;-64
2021/03/04 11:35:58;;;;;;;9.65;5.22;;;;;;;;;;5033586;28;20049;-64
2021/03/04 11:38:43;;;;;;;11.88;5.45;;;;;;;;;;5033234;28;20038;-64
2021/03/04 11:41:29;;;;;;;11.10;5.00;;;;;;;;;;5032879;28;20132;-64
2021/03/04 11:44:14;;;;;;;9.90;5.13;;;;;;;;;;5012888;28;20484;-64
2021/03/04 11:46:59;;;;;;;7.13;4.93;;;;;;;;;;5013559;28;20117;-64
2021/03/04 11:49:44;;;;;;;9.60;5.45;;;;;;;;;;5013420;28;20085;-64
2021/03/04 11:52:30;;;;;;;8.85;5.40;;;;;;;;;;5021694;22;20112;-64
2021/03/04 11:55:15;;;;;;;23.58;6.97;;;;;;;;;;5013377;28;20046;-63
2021/03/04 11:58:01;;;;;;;9.48;5.47;;;;;;;;;;5013227;28;20128;-63
2021/03/04 12:00:47;;;;;;;6.00;4.10;;;;;;;;;;5013099;28;20050;-63
2021/03/04 12:03:32;;;;;;;9.27;4.85;;;;;;;;;;4972889;28;20055;-63
2021/03/04 12:06:17;;;;;;;8.70;4.95;;;;;;;;;;4973199;28;20375;-63
2021/03/04 12:09:02;;;;;;;6.35;2.95;;;;;;;;;;4973979;28;20043;-64
2021/03/04 12:11:47;;;;;;;7.53;3.50;;;;;;;;;;4981655;28;20066;-65
2021/03/04 12:14:33;;;;;;;4.75;2.15;;;;;;;;;;5012529;28;20049;-64
2021/03/04 12:17:18;;;;;;;6.93;2.05;;;;;;;;;;5013172;28;20046;-64
2021/03/04 12:20:05;;;;;;;9.77;2.67;;;;;;;;;;5012911;28;20383;-64
2021/03/04 12:22:50;;;;;;;7.20;2.60;;;;;;;;;;5011493;28;20057;-64
2021/03/04 12:25:35;;;;;;;11.15;2.30;;;;;;;;;;5011993;28;20041;-64
2021/03/04 12:28:20;;;;;;;8.57;1.95;;;;;;;;;;5012556;28;20569;-64
2021/03/04 12:31:06;;;;;;;14.63;4.07;;;;;;;;;;5012616;28;20121;-64
2021/03/04 12:33:51;;;;;;;9.55;2.72;;;;;;;;;;5012445;28;20041;-64
2021/03/04 12:36:37;;;;;;;8.95;2.58;;;;;;;;;;5012743;28;20045;-64
2021/03/04 12:39:22;;;;;;;15.65;3.22;;;;;;;;;;5011375;28;20050;-64
2021/03/04 12:42:07;;;;;;;13.18;2.55;;;;;;;;;;5012565;28;20045;-64
2021/03/04 12:44:52;;;;;;;9.68;2.60;;;;;;;;;;4973598;28;20078;-64
2021/03/04 12:47:38;;;;;;;17.55;3.55;;;;;;;;;;4973303;28;20047;-64
2021/03/04 12:50:23;;;;;;;13.85;2.40;;;;;;;;;;4973362;28;20059;-64
2021/03/04 12:53:08;;;;;;;15.15;3.13;;;;;;;;;;4979161;28;20421;-64
2021/03/04 12:55:54;;;;;;;14.55;3.20;;;;;;;;;;5010976;28;20041;-64
2021/03/04 12:58:39;;;;;;;16.50;4.53;;;;;;;;;;5012311;28;20049;-64
2021/03/04 13:01:25;;;;;;;11.90;3.05;;;;;;;;;;5012243;28;20427;-64
2021/03/04 13:04:10;;;;;;;24.30;4.57;;;;;;;;;;5011911;28;20050;-64
2021/03/04 13:06:56;;;;;;;12.50;3.83;;;;;;;;;;5011948;28;20049;-64
2021/03/04 13:09:45;;;;;;;11.25;2.13;;;;;;;;;;5012008;28;20064;-64
2021/03/04 13:12:30;;;;;;;20.00;3.42;;;;;;;;;;5012079;28;20049;-64
2021/03/04 13:15:15;;;;;;;15.25;2.50;;;;;;;;;;5011878;28;20046;-64
2021/03/04 13:18:01;;;;;;;11.75;3.05;;;;;;;;;;5011014;28;20050;-64
2021/03/04 13:20:46;;;;;;;11.07;2.88;;;;;;;;;;5012090;28;20038;-64
2021/03/04 13:23:33;;;;;;;13.27;2.45;;;;;;;;;;5014583;28;20064;-64
2021/03/04 13:26:18;;;;;;;17.45;2.97;;;;;;;;;;5015464;28;20037;-64
2021/03/04 13:29:04;;;;;;;9.82;2.75;;;;;;;;;;5015891;28;20049;-64
2021/03/04 13:31:49;;;;;;;13.45;2.40;;;;;;;;;;5016201;28;20081;-64
2021/03/04 13:34:34;;;;;;;12.77;2.30;;;;;;;;;;5015658;28;20046;-64
2021/03/04 13:37:20;;;;;;;14.30;2.58;;;;;;;;;;5016018;28;20046;-64
2021/03/04 13:40:06;;;;;;;16.00;2.42;;;;;;;;;;5015892;28;20046;-64
2021/03/04 13:42:51;;;;;;;14.57;2.45;;;;;;;;;;5016013;28;20053;-64
2021/03/04 13:45:36;;;;;;;11.43;2.97;;;;;;;;;;5015576;28;20077;-64
2021/03/04 13:48:22;;;;;;;15.40;3.15;;;;;;;;;;5015548;28;20046;-64
2021/03/04 13:51:07;;;;;;;9.57;1.90;;;;;;;;;;5015609;28;20050;-64
2021/03/04 13:53:53;;;;;;;15.68;3.15;;;;;;;;;;5015668;28;20050;-64
2021/03/04 13:56:38;;;;;;;15.60;2.90;;;;;;;;;;5015286;28;20486;-64
2021/03/04 13:59:23;;;;;;;11.88;2.53;;;;;;;;;;5015479;28;20128;-64
2021/03/04 14:02:09;;;;;;;14.88;2.58;;;;;;;;;;5015548;28;20046;-64
2021/03/04 14:04:54;;;;;;;14.63;3.25;;;;;;;;;;5015475;28;20042;-64
2021/03/04 14:07:39;;;;;;;14.38;2.47;;;;;;;;;;5014145;28;20042;-64
2021/03/04 14:10:25;;;;;;;10.65;2.47;;;;;;;;;;5015101;28;20045;-64
2021/03/04 14:13:10;;;;;;;18.92;3.90;;;;;;;;;;5015224;28;20422;-64
2021/03/04 14:15:55;;;;;;;18.67;2.95;;;;;;;;;;5015039;28;20038;-64
2021/03/04 14:18:41;;;;;;;17.00;2.03;;;;;;;;;;5013448;28;20073;-64
2021/03/04 14:21:26;;;;;;;14.65;4.13;;;;;;;;;;5015020;28;20041;-64
2021/03/04 14:24:12;;;;;;;13.50;2.38;;;;;;;;;;5014320;28;20498;-64
2021/03/04 14:26:58;;;;;;;9.90;2.00;;;;;;;;;;5014866;28;20050;-64
2021/03/04 14:29:43;;;;;;;14.77;2.63;;;;;;;;;;5014058;28;20046;-64
2021/03/04 14:32:28;;;;;;;13.10;2.88;;;;;;;;;;5014811;28;20494;-64
2021/03/04 14:35:14;;;;;;;14.07;2.67;;;;;;;;;;5014553;28;20042;-64
2021/03/04 14:37:59;;;;;;;15.85;3.25;;;;;;;;;;5014259;28;20111;-64
2021/03/04 14:40:46;;;;;;;13.65;3.13;;;;;;;;;;5014706;28;20042;-64
2021/03/04 14:43:31;;;;;;;18.80;3.50;;;;;;;;;;5014834;28;20132;-64
2021/03/04 14:46:16;;;;;;;14.77;3.03;;;;;;;;;;5014700;28;20093;-64
2021/03/04 14:49:01;;;;;;;15.73;2.72;;;;;;;;;;5013483;28;20058;-64
2021/03/04 14:51:47;;;;;;;14.18;3.38;;;;;;;;;;5014159;28;20402;-64
2021/03/04 14:54:32;;;;;;;16.42;3.92;;;;;;;;;;5014501;28;20132;-64
2021/03/04 14:57:17;;;;;;;13.63;2.97;;;;;;;;;;5014746;28;20050;-64
2021/03/04 15:00:04;;;;;;;12.45;3.08;;;;;;;;;;4975479;28;20074;-64
2021/03/04 15:02:52;;;;;;;15.60;2.90;;;;;;;;;;4975441;28;20105;-64
2021/03/04 15:05:37;;;;;;;16.23;3.72;;;;;;;;;;4975572;28;20051;-64
2021/03/04 15:08:22;;;;;;;20.48;3.90;;;;;;;;;;4983656;28;20445;-64
2021/03/04 15:11:08;;;;;;;19.33;4.13;;;;;;;;;;5012737;28;20498;-64
2021/03/04 15:13:53;;;;;;;19.05;3.08;;;;;;;;;;5014070;28;20438;-64
2021/03/04 15:16:39;;;;;;;29.88;4.30;;;;;;;;;;5014223;28;20050;-64
2021/03/04 15:19:24;;;;;;;15.98;4.05;;;;;;;;;;5013523;28;20038;-64
2021/03/04 15:22:09;;;;;;;16.45;3.53;;;;;;;;;;5014102;28;20046;-64
2021/03/04 15:24:55;;;;;;;23.13;4.35;;;;;;;;;;5014135;28;20058;-64
2021/03/04 15:27:41;;;;;;;18.80;4.50;;;;;;;;;;5013719;28;20129;-64
2021/03/04 15:30:28;;;;;;;22.83;4.13;;;;;;;;;;5012081;28;20418;-64
2021/03/04 15:33:14;;;;;;;19.80;3.60;;;;;;;;;;5012723;28;20054;-64
2021/03/04 15:35:59;;;;;;;13.43;2.85;;;;;;;;;;5012886;28;20052;-64
2021/03/04 15:38:44;;;;;;;14.57;2.63;;;;;;;;;;5013549;28;20081;-64
2021/03/04 15:41:30;;;;;;;14.02;2.90;;;;;;;;;;4973299;28;20411;-64
2021/03/04 15:44:15;;;;;;;19.00;4.63;;;;;;;;;;4973747;28;20047;-64
2021/03/04 15:47:01;;;;;;;19.70;2.88;;;;;;;;;;4972981;28;20118;-64
2021/03/04 15:49:46;;;;;;;15.48;2.80;;;;;;;;;;4979636;28;20049;-64
2021/03/04 15:52:36;;;;;;;18.40;3.42;;;;;;;;;;5012348;28;20069;-64
2021/03/04 15:55:21;;;;;;;18.92;2.72;;;;;;;;;;5013390;28;20054;-64
2021/03/04 15:58:07;;;;;;;15.63;3.63;;;;;;;;;;5012316;28;20057;-65
2021/03/04 16:00:53;;;;;;;19.63;3.72;;;;;;;;;;5012874;28;20050;-65
2021/03/04 16:03:40;;;;;;;22.15;3.83;;;;;;;;;;5012363;28;20096;-65
2021/03/04 16:06:26;;;;;;;14.55;3.03;;;;;;;;;;5012274;28;20050;-64
2021/03/04 16:09:11;;;;;;;18.98;3.50;;;;;;;;;;5011993;28;20042;-65
2021/03/04 16:11:56;;;;;;;16.23;3.28;;;;;;;;;;5011690;28;20046;-64
2021/03/04 16:14:41;;;;;;;12.63;2.40;;;;;;;;;;5012116;28;20050;-65